createdAt,value
2023-02-11T00:01:31.055Z,71.05
2023-02-11T00:04:00.342Z,65.05
2023-02-11T00:06:32.463Z,58.35
2023-02-11T00:09:00.586Z,60.13
2023-02-11T00:11:30.384Z,91.80
2023-02-11T00:14:05.199Z,70.80
2023-02-11T00:16:32.971Z,62.28
2023-02-11T00:19:02.424Z,62.70
2023-02-11T00:21:30.519Z,64.32
2023-02-11T00:24:00.253Z,65.23
2023-02-11T00:26:33.230Z,73.93
2023-02-11T00:29:01.978Z,59.63
2023-02-11T00:31:33.130Z,60.75
2023-02-11T00:34:01.538Z,64.68
2023-02-11T00:36:30.289Z,65.47
2023-02-11T00:38:59.101Z,73.25
2023-02-11T00:41:27.196Z,61.05
2023-02-11T00:43:54.755Z,59.08
2023-02-11T00:46:23.566Z,64.53
2023-02-11T00:48:53.291Z,69.60
2023-02-11T00:51:22.471Z,69.90
2023-02-11T00:53:50.559Z,65.18
2023-02-11T00:56:18.476Z,63.08
2023-02-11T00:58:46.501Z,69.10
2023-02-11T01:01:14.518Z,59.92
2023-02-11T01:03:44.050Z,60.05
2023-02-11T01:06:12.611Z,65.78
2023-02-11T01:08:40.571Z,66.03
2023-02-11T01:11:16.666Z,66.43
2023-02-11T01:13:48.385Z,60.13
2023-02-11T01:16:18.078Z,56.80
2023-02-11T01:18:47.253Z,59.53
2023-02-11T01:21:15.168Z,60.90
2023-02-11T01:26:12.988Z,61.60
2023-02-11T01:28:40.655Z,59.35
2023-02-11T01:31:08.284Z,62.78
2023-02-11T01:33:35.948Z,60.67
2023-02-11T01:36:06.420Z,65.22
2023-02-11T01:38:34.564Z,62.17
2023-02-11T01:41:09.859Z,71.10
2023-02-11T01:43:42.382Z,61.45
2023-02-11T01:46:33.646Z,60.25
2023-02-11T01:49:11.669Z,69.70
2023-02-11T01:52:02.228Z,66.83
2023-02-11T01:54:54.951Z,58.28
2023-02-11T01:57:28.191Z,60.38
2023-02-11T02:00:09.740Z,59.55
2023-02-11T02:03:20.245Z,69.95
2023-02-11T02:06:27.199Z,65.38
2023-02-11T02:09:10.085Z,54.63
2023-02-11T02:11:38.143Z,67.05
2023-02-11T02:14:08.609Z,66.97
2023-02-11T02:16:37.829Z,63.47
2023-02-11T02:20:16.363Z,62.42
2023-02-11T02:22:55.856Z,63.08
2023-02-11T02:25:57.770Z,58.13
2023-02-11T02:29:22.619Z,57.42
2023-02-11T02:32:30.140Z,66.40
2023-02-11T02:35:24.102Z,54.17
2023-02-11T02:38:06.920Z,60.35
2023-02-11T02:40:59.730Z,70.30
2023-02-11T02:43:29.442Z,59.88
2023-02-11T02:46:13.122Z,65.45
2023-02-11T02:48:40.787Z,63.05
2023-02-11T02:51:31.537Z,62.75
2023-02-11T02:54:17.666Z,60.00
2023-02-11T02:57:25.735Z,68.03
2023-02-11T03:00:21.176Z,64.05
2023-02-11T03:03:06.727Z,64.75
2023-02-11T03:06:11.561Z,60.53
2023-02-11T03:08:53.057Z,57.28
2023-02-11T03:11:21.979Z,59.63
2023-02-11T03:13:51.606Z,59.28
2023-02-11T03:16:26.631Z,59.30
2023-02-11T03:19:07.474Z,62.05
2023-02-11T03:21:39.435Z,56.17
2023-02-11T03:24:41.390Z,56.38
2023-02-11T03:27:21.222Z,59.85
2023-02-11T03:30:19.080Z,61.65
2023-02-11T03:33:27.700Z,62.23
2023-02-11T03:36:00.628Z,59.20
2023-02-11T03:38:38.736Z,65.20
2023-02-11T03:41:08.723Z,62.65
2023-02-11T03:43:56.139Z,62.85
2023-02-11T03:46:32.233Z,69.00
2023-02-11T03:49:07.120Z,64.97
2023-02-11T03:51:36.039Z,69.53
2023-02-11T03:54:12.498Z,59.97
2023-02-11T03:56:53.032Z,62.85
2023-02-11T03:59:20.825Z,63.45
2023-02-11T04:01:48.681Z,68.00
2023-02-11T04:04:16.846Z,63.83
2023-02-11T04:06:44.585Z,59.10
2023-02-11T04:09:12.802Z,59.35
2023-02-11T04:11:40.383Z,60.13
2023-02-11T04:14:08.649Z,63.28
2023-02-11T04:16:36.466Z,64.30
2023-02-11T04:19:04.118Z,58.50
2023-02-11T04:21:31.891Z,58.47
2023-02-11T04:23:59.532Z,58.15
2023-02-11T04:26:27.144Z,59.97
2023-02-11T04:28:54.706Z,53.83
2023-02-11T04:31:22.410Z,62.88
2023-02-11T04:33:50.155Z,60.78
2023-02-11T04:36:17.810Z,61.20
2023-02-11T04:38:45.352Z,54.85
2023-02-11T04:41:12.984Z,60.05
2023-02-11T04:43:40.620Z,56.92
2023-02-11T04:46:08.287Z,58.75
2023-02-11T04:48:35.970Z,61.22
2023-02-11T04:51:04.041Z,61.47
2023-02-11T04:53:31.800Z,60.60
2023-02-11T04:55:59.805Z,59.45
2023-02-11T04:58:27.582Z,63.92
2023-02-11T05:00:55.256Z,57.60
2023-02-11T05:03:22.905Z,62.20
2023-02-11T05:05:51.307Z,59.00
2023-02-11T05:08:19.060Z,58.28
2023-02-11T05:10:48.084Z,58.30
2023-02-11T05:13:15.628Z,58.25
2023-02-11T05:15:43.182Z,57.60
2023-02-11T05:18:10.819Z,56.42
2023-02-11T05:20:39.348Z,61.75
2023-02-11T05:23:07.252Z,64.68
2023-02-11T05:25:34.951Z,56.67
2023-02-11T05:28:02.548Z,64.82
2023-02-11T05:30:30.942Z,54.92
2023-02-11T05:32:58.913Z,56.45
2023-02-11T05:35:26.471Z,59.92
2023-02-11T05:37:54.095Z,62.95
2023-02-11T05:40:21.968Z,57.53
2023-02-11T05:42:49.612Z,54.97
2023-02-11T05:45:17.285Z,58.13
2023-02-11T05:47:45.122Z,59.30
2023-02-11T05:50:12.920Z,55.37
2023-02-11T05:52:40.725Z,54.15
2023-02-11T05:55:08.823Z,57.58
2023-02-11T05:57:36.414Z,58.80
2023-02-11T06:00:05.701Z,56.08
2023-02-11T06:02:40.781Z,55.58
2023-02-11T06:05:09.076Z,60.78
2023-02-11T06:07:36.580Z,58.40
2023-02-11T06:10:04.760Z,56.70
2023-02-11T06:12:32.297Z,55.50
2023-02-11T06:14:59.818Z,54.80
2023-02-11T06:17:42.601Z,58.08
2023-02-11T06:20:11.549Z,52.88
2023-02-11T06:22:39.556Z,61.70
2023-02-11T06:25:07.431Z,52.88
2023-02-11T06:27:35.303Z,54.53
2023-02-11T06:30:05.055Z,54.22
2023-02-11T06:32:44.680Z,58.20
2023-02-11T06:35:14.438Z,55.58
2023-02-11T06:40:11.798Z,55.22
2023-02-11T06:42:39.763Z,52.65
2023-02-11T06:45:10.715Z,54.17
2023-02-11T06:47:39.988Z,61.30
2023-02-11T06:50:11.653Z,57.08
2023-02-11T06:52:39.239Z,63.35
2023-02-11T06:55:07.459Z,57.90
2023-02-11T06:57:35.140Z,58.40
2023-02-11T07:00:02.955Z,56.75
2023-02-11T07:02:31.742Z,54.67
2023-02-11T07:04:59.337Z,53.88
2023-02-11T07:07:28.361Z,54.80
2023-02-11T07:09:55.861Z,54.47
2023-02-11T07:12:23.749Z,55.83
2023-02-11T07:14:51.449Z,55.03
2023-02-11T07:17:19.109Z,56.40
2023-02-11T07:19:46.656Z,56.95
2023-02-11T07:22:14.627Z,53.97
2023-02-11T07:24:42.266Z,58.50
2023-02-11T07:27:09.916Z,56.40
2023-02-11T07:29:37.777Z,54.10
2023-02-11T07:32:05.857Z,55.83
2023-02-11T07:34:33.619Z,60.33
2023-02-11T07:37:01.335Z,59.60
2023-02-11T07:39:29.414Z,57.53
2023-02-11T07:41:57.479Z,55.38
2023-02-11T07:44:25.770Z,58.17
2023-02-11T07:46:53.469Z,61.00
2023-02-11T07:49:21.028Z,58.08
2023-02-11T07:51:49.211Z,60.95
2023-02-11T07:54:17.494Z,57.10
2023-02-11T07:56:45.040Z,59.88
2023-02-11T07:59:13.022Z,62.45
2023-02-11T08:01:40.530Z,57.17
2023-02-11T08:04:08.077Z,56.55
2023-02-11T08:06:42.259Z,53.08
2023-02-11T08:09:14.665Z,55.15
2023-02-11T08:11:42.765Z,54.70
2023-02-11T08:14:11.224Z,59.50
2023-02-11T08:16:40.233Z,62.28
2023-02-11T08:19:16.755Z,56.65
2023-02-11T08:21:45.096Z,55.67
2023-02-11T08:24:14.619Z,59.17
2023-02-11T08:26:42.386Z,53.50
2023-02-11T08:29:14.413Z,59.65
2023-02-11T08:31:45.551Z,56.67
2023-02-11T08:34:14.537Z,55.85
2023-02-11T08:36:43.738Z,50.65
2023-02-11T08:39:20.992Z,61.65
2023-02-11T08:41:54.032Z,66.65
2023-02-11T08:44:22.967Z,57.40
2023-02-11T08:46:51.365Z,59.33
2023-02-11T08:49:19.787Z,53.25
2023-02-11T08:51:49.749Z,56.95
2023-02-11T08:54:17.898Z,56.75
2023-02-11T08:56:45.864Z,56.15
2023-02-11T08:59:15.456Z,57.50
2023-02-11T09:01:44.370Z,54.90
2023-02-11T09:04:12.500Z,57.42
2023-02-11T09:06:40.561Z,56.95
2023-02-11T09:09:13.615Z,57.92
2023-02-11T09:11:43.817Z,60.88
2023-02-11T09:14:21.940Z,55.55
2023-02-11T09:16:51.510Z,55.23
2023-02-11T09:19:20.296Z,58.08
2023-02-11T09:21:47.967Z,48.55
2023-02-11T09:24:15.724Z,59.10
2023-02-11T09:26:44.099Z,56.47
2023-02-11T09:29:12.689Z,56.67
2023-02-11T09:31:40.652Z,56.13
2023-02-11T09:34:08.904Z,52.63
2023-02-11T09:36:40.263Z,53.95
2023-02-11T09:39:14.477Z,47.88
2023-02-11T09:42:02.440Z,46.95
2023-02-11T09:44:34.857Z,53.27
2023-02-11T09:47:29.894Z,51.05
2023-02-11T09:50:11.817Z,60.33
2023-02-11T09:53:03.879Z,50.95
2023-02-11T09:55:42.374Z,67.57
2023-02-11T09:58:31.805Z,74.68
2023-02-11T10:01:23.501Z,49.50
2023-02-11T10:04:19.457Z,47.00
2023-02-11T10:06:55.459Z,52.72
2023-02-11T10:09:50.811Z,46.63
2023-02-11T10:12:59.874Z,46.58
2023-02-11T10:18:05.827Z,56.05
2023-02-11T10:21:00.427Z,48.45
2023-02-11T10:23:34.530Z,46.95
2023-02-11T10:26:03.048Z,48.30
2023-02-11T10:28:36.344Z,43.15
2023-02-11T10:31:19.962Z,45.22
2023-02-11T10:34:04.685Z,45.95
2023-02-11T10:36:37.519Z,41.85
2023-02-11T10:39:18.119Z,55.78
2023-02-11T10:41:57.154Z,60.97
2023-02-11T10:47:03.811Z,43.45
2023-02-11T10:49:42.907Z,41.83
2023-02-11T10:52:25.064Z,46.75
2023-02-11T10:55:13.892Z,43.80
2023-02-11T10:57:59.480Z,40.90
2023-02-11T11:00:39.307Z,43.22
2023-02-11T11:03:25.316Z,38.28
2023-02-11T11:05:59.653Z,36.50
2023-02-11T11:08:50.809Z,38.47
2023-02-11T11:11:24.186Z,33.58
2023-02-11T11:14:00.640Z,35.92
2023-02-11T11:16:36.849Z,39.10
2023-02-11T11:19:07.389Z,33.72
2023-02-11T11:21:53.401Z,40.33
2023-02-11T11:24:44.795Z,43.85
2023-02-11T11:27:22.125Z,40.40
2023-02-11T11:29:55.505Z,41.35
2023-02-11T11:32:28.535Z,43.17
2023-02-11T11:35:02.694Z,45.55
2023-02-11T11:37:37.219Z,44.42
2023-02-11T11:40:15.851Z,36.28
2023-02-11T11:42:43.718Z,39.55
2023-02-11T11:45:20.077Z,33.45
2023-02-11T11:48:20.859Z,34.53
2023-02-11T11:50:57.697Z,40.63
2023-02-11T11:53:31.249Z,35.65
2023-02-11T11:56:22.389Z,30.02
2023-02-11T11:58:51.449Z,32.95
2023-02-11T12:01:51.758Z,30.13
2023-02-11T12:04:40.646Z,34.10
2023-02-11T12:07:34.545Z,27.77
2023-02-11T12:10:40.510Z,24.60
2023-02-11T12:13:18.261Z,23.08
2023-02-11T12:16:10.085Z,20.95
2023-02-11T12:19:10.704Z,22.52
2023-02-11T12:21:56.343Z,21.48
2023-02-11T12:25:17.286Z,28.45
2023-02-11T12:28:26.248Z,29.42
2023-02-11T12:31:26.306Z,22.65
2023-02-11T12:34:17.049Z,26.08
2023-02-11T12:37:07.752Z,18.52
2023-02-11T12:39:50.831Z,21.02
2023-02-11T12:43:14.765Z,19.83
2023-02-11T12:46:02.595Z,23.00
2023-02-11T12:49:16.002Z,21.67
2023-02-11T12:52:12.004Z,17.80
2023-02-11T12:54:58.488Z,24.75
2023-02-11T12:57:30.261Z,18.45
2023-02-11T13:00:15.901Z,19.75
2023-02-11T13:02:55.774Z,16.75
2023-02-11T13:05:28.382Z,18.17
2023-02-11T13:08:21.223Z,15.10
2023-02-11T13:10:54.890Z,17.30
2023-02-11T13:13:30.754Z,14.57
2023-02-11T13:16:10.028Z,13.75
2023-02-11T13:19:01.416Z,16.67
2023-02-11T13:22:07.964Z,15.43
2023-02-11T13:25:01.338Z,14.57
2023-02-11T13:28:03.408Z,15.55
2023-02-11T13:30:35.810Z,16.15
2023-02-11T13:33:16.627Z,14.10
2023-02-11T13:36:04.895Z,12.32
2023-02-11T13:38:33.637Z,14.05
2023-02-11T13:41:24.807Z,12.05
2023-02-11T13:44:11.103Z,13.07
2023-02-11T13:46:53.851Z,12.75
2023-02-11T13:49:27.906Z,16.80
2023-02-11T13:51:57.029Z,15.02
2023-02-11T13:57:20.868Z,12.73
2023-02-11T14:00:02.097Z,13.43
2023-02-11T14:02:52.816Z,24.73
2023-02-11T14:05:48.038Z,16.23
2023-02-11T14:08:40.372Z,14.68
2023-02-11T14:11:34.140Z,14.77
2023-02-11T14:14:33.537Z,18.85
2023-02-11T14:17:07.046Z,15.35
2023-02-11T14:19:38.453Z,18.55
2023-02-11T14:22:41.648Z,17.30
2023-02-11T14:25:25.445Z,21.85
2023-02-11T14:28:23.842Z,15.98
2023-02-11T14:31:05.155Z,19.33
2023-02-11T14:33:48.188Z,17.63
2023-02-11T14:36:53.306Z,17.42
2023-02-11T14:39:53.771Z,19.13
2023-02-11T14:42:26.794Z,20.75
2023-02-11T14:44:57.556Z,17.52
2023-02-11T14:47:52.551Z,21.70
2023-02-11T14:50:32.869Z,19.83
2023-02-11T14:53:03.113Z,24.40
2023-02-11T14:55:41.657Z,23.70
2023-02-11T14:58:46.407Z,22.85
2023-02-11T15:01:41.935Z,20.15
2023-02-11T15:04:30.933Z,17.08
2023-02-11T15:07:08.277Z,16.13
2023-02-11T15:09:53.078Z,19.65
2023-02-11T15:12:28.573Z,21.75
2023-02-11T15:15:00.000Z,24.27
2023-02-11T15:17:31.781Z,17.73
2023-02-11T15:20:02.285Z,22.13
2023-02-11T15:22:36.820Z,18.58
2023-02-11T15:25:07.189Z,21.27
2023-02-11T15:27:49.542Z,18.13
2023-02-11T15:30:26.353Z,20.83
2023-02-11T15:33:02.713Z,24.55
2023-02-11T15:35:38.080Z,22.92
2023-02-11T15:38:06.059Z,23.05
2023-02-11T15:40:36.799Z,19.83
2023-02-11T15:43:07.565Z,20.10
2023-02-11T15:45:53.575Z,23.33
2023-02-11T15:48:53.736Z,23.52
2023-02-11T15:51:35.502Z,19.70
2023-02-11T15:54:16.558Z,20.90
2023-02-11T15:56:48.562Z,23.33
2023-02-11T15:59:30.667Z,21.83
2023-02-11T16:02:24.696Z,20.77
2023-02-11T16:05:07.468Z,23.45
2023-02-11T16:07:47.910Z,20.27
2023-02-11T16:10:20.194Z,22.38
2023-02-11T16:13:14.107Z,22.00
2023-02-11T16:15:53.175Z,22.48
2023-02-11T16:21:17.847Z,20.17
2023-02-11T16:23:54.072Z,22.42
2023-02-11T16:26:34.948Z,22.38
2023-02-11T16:29:24.865Z,22.88
2023-02-11T16:31:55.548Z,21.20
2023-02-11T16:34:25.660Z,22.98
2023-02-11T16:36:53.845Z,25.67
2023-02-11T16:39:22.459Z,26.73
2023-02-11T16:41:51.473Z,24.75
2023-02-11T16:44:19.946Z,25.30
2023-02-11T16:46:48.066Z,25.25
2023-02-11T16:49:44.488Z,25.35
2023-02-11T16:52:15.809Z,41.03
2023-02-11T16:54:43.804Z,28.33
2023-02-11T16:57:28.828Z,23.63
2023-02-11T16:59:59.078Z,28.27
2023-02-11T17:02:31.079Z,32.53
2023-02-11T17:05:03.387Z,29.08
2023-02-11T17:07:31.789Z,28.05
2023-02-11T17:09:59.747Z,30.20
2023-02-11T17:12:27.449Z,27.95
2023-02-11T17:14:55.107Z,29.33
2023-02-11T17:17:23.832Z,27.80
2023-02-11T17:19:51.536Z,27.60
2023-02-11T17:22:19.372Z,30.98
2023-02-11T17:24:46.935Z,41.38
2023-02-11T17:27:15.152Z,30.48
2023-02-11T17:29:42.758Z,36.37
2023-02-11T17:32:10.459Z,33.13
2023-02-11T17:34:38.304Z,29.80
2023-02-11T17:37:09.668Z,31.35
2023-02-11T17:39:40.104Z,35.17
2023-02-11T17:42:08.811Z,32.78
2023-02-11T17:44:37.236Z,30.02
2023-02-11T17:47:05.065Z,30.38
2023-02-11T17:49:32.769Z,29.08
2023-02-11T17:52:00.794Z,29.92
2023-02-11T17:54:28.432Z,38.10
2023-02-11T17:56:58.317Z,33.17
2023-02-11T17:59:28.441Z,29.13
2023-02-11T18:01:56.096Z,31.85
2023-02-11T18:04:24.024Z,30.58
2023-02-11T18:06:53.607Z,31.67
2023-02-11T18:09:21.395Z,31.92
2023-02-11T18:11:52.582Z,30.00
2023-02-11T18:14:21.246Z,30.07
2023-02-11T18:16:53.304Z,31.80
2023-02-11T18:19:21.400Z,30.48
2023-02-11T18:21:50.335Z,41.58
2023-02-11T18:24:18.967Z,32.20
2023-02-11T18:26:46.694Z,38.10
2023-02-11T18:29:14.349Z,35.97
2023-02-11T18:31:42.147Z,33.30
2023-02-11T18:34:11.682Z,36.83
2023-02-11T18:36:39.581Z,35.45
2023-02-11T18:39:07.404Z,32.78
2023-02-11T18:41:35.853Z,39.47
2023-02-11T18:44:04.850Z,43.53
2023-02-11T18:46:32.851Z,43.30
2023-02-11T18:49:01.058Z,43.47
2023-02-11T18:51:31.821Z,46.60
2023-02-11T18:54:01.088Z,42.88
2023-02-11T18:56:28.869Z,43.58
2023-02-11T18:58:58.227Z,41.00
2023-02-11T19:01:28.385Z,39.92
2023-02-11T19:03:58.782Z,45.83
2023-02-11T19:06:30.232Z,35.33
2023-02-11T19:09:01.572Z,37.58
2023-02-11T19:11:49.838Z,41.80
2023-02-11T19:14:27.231Z,40.73
2023-02-11T19:16:58.329Z,46.58
2023-02-11T19:19:29.909Z,54.88
2023-02-11T19:21:59.353Z,37.75
2023-02-11T19:24:31.319Z,39.25
2023-02-11T19:27:03.112Z,40.38
2023-02-11T19:29:34.978Z,42.40
2023-02-11T19:32:06.710Z,41.90
2023-02-11T19:34:41.204Z,39.75
2023-02-11T19:37:16.188Z,38.38
2023-02-11T19:39:43.964Z,46.25
2023-02-11T19:42:12.715Z,40.72
2023-02-11T19:44:40.628Z,43.65
2023-02-11T19:47:10.215Z,43.58
2023-02-11T19:49:38.046Z,47.60
2023-02-11T19:52:05.711Z,41.33
2023-02-11T19:54:33.668Z,39.30
2023-02-11T19:57:01.286Z,44.88
2023-02-11T19:59:29.170Z,43.00
2023-02-11T20:01:57.607Z,51.67
2023-02-11T20:04:25.266Z,58.20
2023-02-11T20:06:52.864Z,60.63
2023-02-11T20:09:21.673Z,55.70
2023-02-11T20:11:49.416Z,60.83
2023-02-11T20:14:17.278Z,55.70
2023-02-11T20:16:49.279Z,54.25
2023-02-11T20:19:21.582Z,58.28
2023-02-11T20:21:53.177Z,54.83
2023-02-11T20:24:21.738Z,57.33
2023-02-11T20:26:51.568Z,55.28
2023-02-11T20:29:19.740Z,50.55
2023-02-11T20:31:49.165Z,54.47
2023-02-11T20:34:17.865Z,56.90
2023-02-11T20:36:51.841Z,54.92
2023-02-11T20:39:22.653Z,48.60
2023-02-11T20:41:51.614Z,60.08
2023-02-11T20:44:21.615Z,46.75
2023-02-11T20:46:50.332Z,50.17
2023-02-11T20:49:21.580Z,69.68
2023-02-11T20:51:51.277Z,57.70
2023-02-11T20:54:20.959Z,64.75
2023-02-11T20:56:51.283Z,63.22
2023-02-11T20:59:21.013Z,57.88
2023-02-11T21:01:55.567Z,58.88
2023-02-11T21:04:27.565Z,55.85
2023-02-11T21:06:59.558Z,52.70
2023-02-11T21:09:31.528Z,54.78
2023-02-11T21:11:59.720Z,45.97
2023-02-11T21:14:28.492Z,49.20
2023-02-11T21:16:56.326Z,44.28
2023-02-11T21:19:24.240Z,53.97
2023-02-11T21:21:52.005Z,53.20
2023-02-11T21:24:19.732Z,49.45
2023-02-11T21:26:47.389Z,46.45
2023-02-11T21:29:15.094Z,53.42
2023-02-11T21:31:43.136Z,44.60
2023-02-11T21:34:16.612Z,42.30
2023-02-11T21:36:45.130Z,43.65
2023-02-11T21:39:13.652Z,41.08
2023-02-11T21:41:41.503Z,39.45
2023-02-11T21:44:09.393Z,35.22
2023-02-11T21:46:37.369Z,44.05
2023-02-11T21:49:05.154Z,44.65
2023-02-11T21:51:33.032Z,47.13
2023-02-11T21:54:02.677Z,47.00
2023-02-11T21:56:33.387Z,41.33
2023-02-11T21:59:01.568Z,48.08
2023-02-11T22:01:32.544Z,53.58
2023-02-11T22:04:00.697Z,46.30
2023-02-11T22:06:31.906Z,47.33
2023-02-11T22:09:06.234Z,48.97
2023-02-11T22:11:34.343Z,46.65
2023-02-11T22:14:02.114Z,43.85
2023-02-11T22:16:30.910Z,51.05
2023-02-11T22:19:00.221Z,45.72
2023-02-11T22:21:28.076Z,50.88
2023-02-11T22:23:57.063Z,45.33
2023-02-11T22:26:27.099Z,41.72
2023-02-11T22:28:55.537Z,41.65
2023-02-11T22:31:28.404Z,45.35
2023-02-11T22:34:03.738Z,46.10
2023-02-11T22:36:38.903Z,47.50
2023-02-11T22:39:17.773Z,51.80
2023-02-11T22:41:48.556Z,48.97
2023-02-11T22:44:17.668Z,48.83
2023-02-11T22:46:45.643Z,51.08
2023-02-11T22:49:16.497Z,43.58
2023-02-11T22:51:44.924Z,56.03
2023-02-11T22:54:16.063Z,52.65
2023-02-11T22:56:44.971Z,46.15
2023-02-11T22:59:15.278Z,42.35
2023-02-11T23:01:43.844Z,49.20
2023-02-11T23:04:15.882Z,44.42
2023-02-11T23:06:43.981Z,45.38
2023-02-11T23:09:15.098Z,51.13
2023-02-11T23:11:42.963Z,51.42
2023-02-11T23:14:12.059Z,48.30
2023-02-11T23:16:40.023Z,51.22
2023-02-11T23:19:10.615Z,45.25
2023-02-11T23:21:39.799Z,51.88
2023-02-11T23:24:16.622Z,45.45
2023-02-11T23:26:44.962Z,49.20
2023-02-11T23:29:13.379Z,48.40
2023-02-11T23:31:45.875Z,41.80
2023-02-11T23:34:17.234Z,50.80
2023-02-11T23:36:45.276Z,48.08
2023-02-11T23:39:15.743Z,43.92
2023-02-11T23:41:43.921Z,43.75
2023-02-11T23:44:12.010Z,47.70
2023-02-11T23:46:39.722Z,45.55
2023-02-11T23:49:07.443Z,44.60
2023-02-11T23:51:35.198Z,42.90
2023-02-11T23:54:03.243Z,46.00
2023-02-11T23:56:31.070Z,47.78
2023-02-11T23:58:59.509Z,46.42
